sensor_id;sensor_type;location;lat;lon;timestamp;P1;durP1;ratioP1;P2;durP2;ratioP2
15022;SDS011;19850;49.576;10.880;2023-02-28T00:01:46;3.27;;;2.87;;
15022;SDS011;19850;49.576;10.880;2023-02-28T00:05:49;3.30;;;3.00;;
15022;SDS011;19850;49.576;10.880;2023-02-28T00:09:53;3.40;;;2.83;;
15022;SDS011;19850;49.576;10.880;2023-02-28T00:13:56;3.20;;;2.90;;
15022;SDS011;19850;49.576;10.880;2023-02-28T00:17:59;3.40;;;2.80;;
15022;SDS011;19850;49.576;10.880;2023-02-28T00:22:02;3.10;;;2.80;;
15022;SDS011;19850;49.576;10.880;2023-02-28T00:26:06;3.20;;;2.90;;
15022;SDS011;19850;49.576;10.880;2023-02-28T00:30:10;2.80;;;2.60;;
15022;SDS011;19850;49.576;10.880;2023-02-28T00:34:14;3.40;;;3.10;;
15022;SDS011;19850;49.576;10.880;2023-02-28T00:38:16;4.33;;;3.00;;
15022;SDS011;19850;49.576;10.880;2023-02-28T00:42:20;3.17;;;2.60;;
15022;SDS011;19850;49.576;10.880;2023-02-28T00:46:23;3.17;;;2.70;;
15022;SDS011;19850;49.576;10.880;2023-02-28T00:50:26;2.93;;;2.70;;
15022;SDS011;19850;49.576;10.880;2023-02-28T00:54:31;4.40;;;2.80;;
15022;SDS011;19850;49.576;10.880;2023-02-28T00:58:52;3.03;;;2.67;;
15022;SDS011;19850;49.576;10.880;2023-02-28T01:02:55;3.20;;;2.90;;
15022;SDS011;19850;49.576;10.880;2023-02-28T01:07:00;2.77;;;2.57;;
15022;SDS011;19850;49.576;10.880;2023-02-28T01:11:09;3.20;;;2.90;;
15022;SDS011;19850;49.576;10.880;2023-02-28T01:15:17;3.30;;;2.77;;
15022;SDS011;19850;49.576;10.880;2023-02-28T01:19:20;3.47;;;2.60;;
15022;SDS011;19850;49.576;10.880;2023-02-28T01:23:25;3.00;;;2.70;;
15022;SDS011;19850;49.576;10.880;2023-02-28T01:27:28;2.93;;;2.73;;
15022;SDS011;19850;49.576;10.880;2023-02-28T01:31:32;2.70;;;2.50;;
15022;SDS011;19850;49.576;10.880;2023-02-28T01:35:35;3.00;;;2.70;;
15022;SDS011;19850;49.576;10.880;2023-02-28T01:39:39;4.43;;;2.93;;
15022;SDS011;19850;49.576;10.880;2023-02-28T01:48:10;2.80;;;2.60;;
15022;SDS011;19850;49.576;10.880;2023-02-28T01:52:13;3.10;;;2.80;;
15022;SDS011;19850;49.576;10.880;2023-02-28T01:56:20;2.77;;;2.57;;
15022;SDS011;19850;49.576;10.880;2023-02-28T02:00:25;3.60;;;2.67;;
15022;SDS011;19850;49.576;10.880;2023-02-28T02:04:32;3.40;;;3.10;;
15022;SDS011;19850;49.576;10.880;2023-02-28T02:08:37;3.73;;;2.50;;
15022;SDS011;19850;49.576;10.880;2023-02-28T02:12:45;4.00;;;3.10;;
15022;SDS011;19850;49.576;10.880;2023-02-28T02:17:11;3.27;;;2.97;;
15022;SDS011;19850;49.576;10.880;2023-02-28T02:25:52;3.27;;;2.97;;
15022;SDS011;19850;49.576;10.880;2023-02-28T02:30:02;3.37;;;2.60;;
15022;SDS011;19850;49.576;10.880;2023-02-28T02:34:31;4.13;;;2.83;;
15022;SDS011;19850;49.576;10.880;2023-02-28T02:38:58;4.47;;;3.30;;
15022;SDS011;19850;49.576;10.880;2023-02-28T02:43:06;3.77;;;2.60;;
15022;SDS011;19850;49.576;10.880;2023-02-28T02:47:12;2.93;;;2.70;;
15022;SDS011;19850;49.576;10.880;2023-02-28T02:51:19;3.30;;;3.00;;
15022;SDS011;19850;49.576;10.880;2023-02-28T02:55:23;3.77;;;3.10;;
15022;SDS011;19850;49.576;10.880;2023-02-28T02:59:26;3.40;;;3.10;;
15022;SDS011;19850;49.576;10.880;2023-02-28T03:03:30;3.30;;;2.80;;
15022;SDS011;19850;49.576;10.880;2023-02-28T03:07:36;3.93;;;3.00;;
15022;SDS011;19850;49.576;10.880;2023-02-28T03:11:39;3.73;;;3.13;;
15022;SDS011;19850;49.576;10.880;2023-02-28T03:15:48;3.63;;;3.33;;
15022;SDS011;19850;49.576;10.880;2023-02-28T03:20:01;4.07;;;3.27;;
15022;SDS011;19850;49.576;10.880;2023-02-28T03:24:10;5.20;;;3.33;;
15022;SDS011;19850;49.576;10.880;2023-02-28T03:28:19;4.20;;;3.33;;
15022;SDS011;19850;49.576;10.880;2023-02-28T03:32:25;3.90;;;3.50;;
15022;SDS011;19850;49.576;10.880;2023-02-28T03:36:32;3.27;;;2.93;;
15022;SDS011;19850;49.576;10.880;2023-02-28T03:40:47;4.70;;;3.40;;
15022;SDS011;19850;49.576;10.880;2023-02-28T03:44:52;5.50;;;3.50;;
15022;SDS011;19850;49.576;10.880;2023-02-28T03:48:57;5.13;;;3.80;;
15022;SDS011;19850;49.576;10.880;2023-02-28T03:53:06;4.93;;;3.67;;
15022;SDS011;19850;49.576;10.880;2023-02-28T03:57:15;5.23;;;3.77;;
15022;SDS011;19850;49.576;10.880;2023-02-28T04:01:21;3.97;;;3.37;;
15022;SDS011;19850;49.576;10.880;2023-02-28T04:05:28;4.00;;;3.60;;
15022;SDS011;19850;49.576;10.880;2023-02-28T04:09:31;5.07;;;3.90;;
15022;SDS011;19850;49.576;10.880;2023-02-28T04:13:35;4.37;;;3.70;;
15022;SDS011;19850;49.576;10.880;2023-02-28T04:17:38;5.20;;;3.83;;
15022;SDS011;19850;49.576;10.880;2023-02-28T04:21:41;4.33;;;3.67;;
15022;SDS011;19850;49.576;10.880;2023-02-28T04:25:45;4.20;;;3.80;;
15022;SDS011;19850;49.576;10.880;2023-02-28T04:29:49;4.70;;;4.00;;
15022;SDS011;19850;49.576;10.880;2023-02-28T04:33:52;5.63;;;3.87;;
15022;SDS011;19850;49.576;10.880;2023-02-28T04:37:55;5.20;;;4.07;;
15022;SDS011;19850;49.576;10.880;2023-02-28T04:41:57;5.13;;;4.03;;
15022;SDS011;19850;49.576;10.880;2023-02-28T04:46:03;5.10;;;3.90;;
15022;SDS011;19850;49.576;10.880;2023-02-28T04:50:07;4.43;;;3.80;;
15022;SDS011;19850;49.576;10.880;2023-02-28T04:54:10;4.40;;;3.83;;
15022;SDS011;19850;49.576;10.880;2023-02-28T04:58:14;4.90;;;3.93;;
15022;SDS011;19850;49.576;10.880;2023-02-28T05:02:18;4.20;;;3.80;;
15022;SDS011;19850;49.576;10.880;2023-02-28T05:06:23;4.80;;;3.80;;
15022;SDS011;19850;49.576;10.880;2023-02-28T05:10:27;4.87;;;3.70;;
15022;SDS011;19850;49.576;10.880;2023-02-28T05:14:29;4.23;;;3.83;;
15022;SDS011;19850;49.576;10.880;2023-02-28T05:18:34;3.97;;;3.57;;
15022;SDS011;19850;49.576;10.880;2023-02-28T05:22:37;4.63;;;3.97;;
15022;SDS011;19850;49.576;10.880;2023-02-28T05:26:41;5.00;;;4.10;;
15022;SDS011;19850;49.576;10.880;2023-02-28T05:30:44;5.10;;;4.00;;
15022;SDS011;19850;49.576;10.880;2023-02-28T05:34:48;4.83;;;4.00;;
15022;SDS011;19850;49.576;10.880;2023-02-28T05:38:51;6.50;;;4.73;;
15022;SDS011;19850;49.576;10.880;2023-02-28T05:42:54;5.30;;;4.37;;
15022;SDS011;19850;49.576;10.880;2023-02-28T05:46:57;5.63;;;4.17;;
15022;SDS011;19850;49.576;10.880;2023-02-28T05:51:02;6.00;;;4.97;;
15022;SDS011;19850;49.576;10.880;2023-02-28T05:55:06;4.60;;;4.07;;
15022;SDS011;19850;49.576;10.880;2023-02-28T05:59:09;6.50;;;4.80;;
15022;SDS011;19850;49.576;10.880;2023-02-28T06:03:12;4.97;;;4.47;;
15022;SDS011;19850;49.576;10.880;2023-02-28T06:07:17;5.53;;;4.20;;
15022;SDS011;19850;49.576;10.880;2023-02-28T06:11:22;6.37;;;4.80;;
15022;SDS011;19850;49.576;10.880;2023-02-28T06:15:29;5.90;;;4.53;;
15022;SDS011;19850;49.576;10.880;2023-02-28T06:19:34;6.47;;;4.63;;
15022;SDS011;19850;49.576;10.880;2023-02-28T06:23:41;8.13;;;6.10;;
15022;SDS011;19850;49.576;10.880;2023-02-28T06:27:45;8.33;;;6.10;;
15022;SDS011;19850;49.576;10.880;2023-02-28T06:31:47;9.03;;;6.00;;
15022;SDS011;19850;49.576;10.880;2023-02-28T06:35:51;12.13;;;7.03;;
15022;SDS011;19850;49.576;10.880;2023-02-28T06:39:56;10.83;;;7.10;;
15022;SDS011;19850;49.576;10.880;2023-02-28T06:43:59;8.77;;;6.97;;
15022;SDS011;19850;49.576;10.880;2023-02-28T06:48:02;7.63;;;5.73;;
15022;SDS011;19850;49.576;10.880;2023-02-28T06:52:05;6.53;;;5.50;;
15022;SDS011;19850;49.576;10.880;2023-02-28T06:56:10;6.73;;;5.00;;
15022;SDS011;19850;49.576;10.880;2023-02-28T07:00:15;6.87;;;5.10;;
15022;SDS011;19850;49.576;10.880;2023-02-28T07:04:18;6.60;;;5.33;;
15022;SDS011;19850;49.576;10.880;2023-02-28T07:08:20;6.77;;;5.00;;
15022;SDS011;19850;49.576;10.880;2023-02-28T07:12:25;5.87;;;5.27;;
15022;SDS011;19850;49.576;10.880;2023-02-28T07:16:28;6.30;;;5.07;;
15022;SDS011;19850;49.576;10.880;2023-02-28T07:20:31;6.43;;;5.73;;
15022;SDS011;19850;49.576;10.880;2023-02-28T07:24:34;6.20;;;5.13;;
15022;SDS011;19850;49.576;10.880;2023-02-28T07:28:39;7.67;;;5.67;;
15022;SDS011;19850;49.576;10.880;2023-02-28T07:32:41;6.90;;;5.63;;
15022;SDS011;19850;49.576;10.880;2023-02-28T07:36:47;6.87;;;5.67;;
15022;SDS011;19850;49.576;10.880;2023-02-28T07:40:55;7.00;;;5.77;;
15022;SDS011;19850;49.576;10.880;2023-02-28T07:44:59;7.13;;;6.07;;
15022;SDS011;19850;49.576;10.880;2023-02-28T07:49:02;6.47;;;5.80;;
15022;SDS011;19850;49.576;10.880;2023-02-28T07:53:06;6.87;;;5.77;;
15022;SDS011;19850;49.576;10.880;2023-02-28T07:57:11;6.57;;;5.60;;
15022;SDS011;19850;49.576;10.880;2023-02-28T08:01:15;7.10;;;6.17;;
15022;SDS011;19850;49.576;10.880;2023-02-28T08:05:18;7.20;;;6.50;;
15022;SDS011;19850;49.576;10.880;2023-02-28T08:09:22;7.10;;;5.60;;
15022;SDS011;19850;49.576;10.880;2023-02-28T08:13:25;8.47;;;6.50;;
15022;SDS011;19850;49.576;10.880;2023-02-28T08:17:30;8.27;;;6.33;;
15022;SDS011;19850;49.576;10.880;2023-02-28T08:21:35;8.13;;;6.67;;
15022;SDS011;19850;49.576;10.880;2023-02-28T08:25:38;6.67;;;6.00;;
15022;SDS011;19850;49.576;10.880;2023-02-28T08:29:41;7.60;;;6.33;;
15022;SDS011;19850;49.576;10.880;2023-02-28T08:33:45;8.40;;;5.97;;
15022;SDS011;19850;49.576;10.880;2023-02-28T08:37:49;7.37;;;6.63;;
15022;SDS011;19850;49.576;10.880;2023-02-28T08:41:52;9.57;;;6.77;;
15022;SDS011;19850;49.576;10.880;2023-02-28T08:46:07;8.23;;;6.30;;
15022;SDS011;19850;49.576;10.880;2023-02-28T08:50:12;7.03;;;6.33;;
15022;SDS011;19850;49.576;10.880;2023-02-28T08:54:16;9.37;;;6.67;;
15022;SDS011;19850;49.576;10.880;2023-02-28T08:58:20;7.43;;;6.37;;
15022;SDS011;19850;49.576;10.880;2023-02-28T09:02:23;7.37;;;6.30;;
15022;SDS011;19850;49.576;10.880;2023-02-28T09:06:27;9.00;;;7.83;;
15022;SDS011;19850;49.576;10.880;2023-02-28T09:10:30;7.30;;;6.57;;
15022;SDS011;19850;49.576;10.880;2023-02-28T09:14:33;8.20;;;7.40;;
15022;SDS011;19850;49.576;10.880;2023-02-28T09:18:36;6.83;;;6.13;;
15022;SDS011;19850;49.576;10.880;2023-02-28T09:22:41;10.73;;;7.00;;
15022;SDS011;19850;49.576;10.880;2023-02-28T09:26:43;8.70;;;7.47;;
15022;SDS011;19850;49.576;10.880;2023-02-28T09:31:03;8.53;;;7.63;;
15022;SDS011;19850;49.576;10.880;2023-02-28T09:35:06;12.20;;;9.50;;
15022;SDS011;19850;49.576;10.880;2023-02-28T09:39:18;8.60;;;7.40;;
15022;SDS011;19850;49.576;10.880;2023-02-28T09:43:21;11.43;;;10.23;;
15022;SDS011;19850;49.576;10.880;2023-02-28T09:47:29;8.60;;;7.70;;
15022;SDS011;19850;49.576;10.880;2023-02-28T09:51:37;8.20;;;7.00;;
15022;SDS011;19850;49.576;10.880;2023-02-28T09:55:48;9.03;;;6.80;;
15022;SDS011;19850;49.576;10.880;2023-02-28T09:59:59;8.37;;;6.43;;
15022;SDS011;19850;49.576;10.880;2023-02-28T10:04:12;7.13;;;5.97;;
15022;SDS011;19850;49.576;10.880;2023-02-28T10:08:19;9.20;;;6.20;;
15022;SDS011;19850;49.576;10.880;2023-02-28T10:12:28;6.57;;;5.97;;
15022;SDS011;19850;49.576;10.880;2023-02-28T10:16:33;5.90;;;5.37;;
15022;SDS011;19850;49.576;10.880;2023-02-28T10:20:41;7.17;;;6.30;;
15022;SDS011;19850;49.576;10.880;2023-02-28T10:24:45;7.13;;;5.07;;
15022;SDS011;19850;49.576;10.880;2023-02-28T10:28:54;8.10;;;5.97;;
15022;SDS011;19850;49.576;10.880;2023-02-28T10:32:57;6.30;;;5.40;;
15022;SDS011;19850;49.576;10.880;2023-02-28T10:36:59;5.50;;;5.00;;
15022;SDS011;19850;49.576;10.880;2023-02-28T10:41:09;5.97;;;5.43;;
15022;SDS011;19850;49.576;10.880;2023-02-28T10:45:15;7.10;;;6.40;;
15022;SDS011;19850;49.576;10.880;2023-02-28T10:49:20;6.47;;;5.50;;
15022;SDS011;19850;49.576;10.880;2023-02-28T10:53:31;7.27;;;5.27;;
15022;SDS011;19850;49.576;10.880;2023-02-28T10:57:55;6.43;;;5.50;;
15022;SDS011;19850;49.576;10.880;2023-02-28T11:02:00;6.00;;;5.10;;
15022;SDS011;19850;49.576;10.880;2023-02-28T11:06:06;6.57;;;5.33;;
15022;SDS011;19850;49.576;10.880;2023-02-28T11:10:16;5.67;;;5.03;;
15022;SDS011;19850;49.576;10.880;2023-02-28T11:14:21;7.60;;;5.33;;
15022;SDS011;19850;49.576;10.880;2023-02-28T11:18:28;9.37;;;5.10;;
15022;SDS011;19850;49.576;10.880;2023-02-28T11:22:32;6.93;;;5.60;;
15022;SDS011;19850;49.576;10.880;2023-02-28T11:26:41;6.43;;;5.80;;
15022;SDS011;19850;49.576;10.880;2023-02-28T11:30:45;6.57;;;5.80;;
15022;SDS011;19850;49.576;10.880;2023-02-28T11:35:00;6.93;;;5.73;;
15022;SDS011;19850;49.576;10.880;2023-02-28T11:39:07;6.23;;;5.63;;
15022;SDS011;19850;49.576;10.880;2023-02-28T11:43:17;5.90;;;5.40;;
15022;SDS011;19850;49.576;10.880;2023-02-28T11:47:32;7.90;;;5.60;;
15022;SDS011;19850;49.576;10.880;2023-02-28T11:51:41;7.17;;;6.23;;
15022;SDS011;19850;49.576;10.880;2023-02-28T11:55:52;5.90;;;5.20;;
15022;SDS011;19850;49.576;10.880;2023-02-28T11:59:58;7.13;;;5.73;;
15022;SDS011;19850;49.576;10.880;2023-02-28T12:04:11;6.00;;;5.40;;
15022;SDS011;19850;49.576;10.880;2023-02-28T12:08:25;6.70;;;5.27;;
15022;SDS011;19850;49.576;10.880;2023-02-28T12:12:34;5.77;;;5.17;;
15022;SDS011;19850;49.576;10.880;2023-02-28T12:16:47;6.17;;;5.13;;
15022;SDS011;19850;49.576;10.880;2023-02-28T12:21:01;5.77;;;5.27;;
15022;SDS011;19850;49.576;10.880;2023-02-28T12:29:48;8.50;;;5.50;;
15022;SDS011;19850;49.576;10.880;2023-02-28T12:33:53;6.73;;;5.37;;
15022;SDS011;19850;49.576;10.880;2023-02-28T12:38:02;7.07;;;5.83;;
15022;SDS011;19850;49.576;10.880;2023-02-28T12:42:10;7.30;;;5.33;;
15022;SDS011;19850;49.576;10.880;2023-02-28T12:46:16;9.60;;;5.43;;
15022;SDS011;19850;49.576;10.880;2023-02-28T12:50:23;6.27;;;4.90;;
15022;SDS011;19850;49.576;10.880;2023-02-28T12:54:28;6.77;;;5.67;;
15022;SDS011;19850;49.576;10.880;2023-02-28T12:58:35;6.27;;;5.57;;
15022;SDS011;19850;49.576;10.880;2023-02-28T13:02:53;6.97;;;6.23;;
15022;SDS011;19850;49.576;10.880;2023-02-28T13:11:59;7.47;;;5.73;;
15022;SDS011;19850;49.576;10.880;2023-02-28T13:16:04;6.13;;;5.23;;
15022;SDS011;19850;49.576;10.880;2023-02-28T13:20:15;6.70;;;5.80;;
15022;SDS011;19850;49.576;10.880;2023-02-28T13:28:58;9.60;;;6.17;;
15022;SDS011;19850;49.576;10.880;2023-02-28T13:37:32;8.77;;;6.00;;
15022;SDS011;19850;49.576;10.880;2023-02-28T13:41:44;6.40;;;5.77;;
15022;SDS011;19850;49.576;10.880;2023-02-28T13:46:04;6.67;;;5.93;;
15022;SDS011;19850;49.576;10.880;2023-02-28T13:50:15;8.10;;;6.30;;
15022;SDS011;19850;49.576;10.880;2023-02-28T13:54:31;10.73;;;6.43;;
15022;SDS011;19850;49.576;10.880;2023-02-28T13:58:43;8.37;;;6.20;;
15022;SDS011;19850;49.576;10.880;2023-02-28T14:02:56;7.63;;;6.27;;
15022;SDS011;19850;49.576;10.880;2023-02-28T14:07:14;8.63;;;7.27;;
15022;SDS011;19850;49.576;10.880;2023-02-28T14:11:27;7.80;;;6.43;;
15022;SDS011;19850;49.576;10.880;2023-02-28T14:15:40;8.47;;;6.23;;
15022;SDS011;19850;49.576;10.880;2023-02-28T14:19:46;7.03;;;6.10;;
15022;SDS011;19850;49.576;10.880;2023-02-28T14:28:43;8.37;;;6.00;;
15022;SDS011;19850;49.576;10.880;2023-02-28T14:32:54;6.63;;;5.93;;
15022;SDS011;19850;49.576;10.880;2023-02-28T14:37:09;8.20;;;6.20;;
15022;SDS011;19850;49.576;10.880;2023-02-28T14:41:16;7.30;;;6.27;;
15022;SDS011;19850;49.576;10.880;2023-02-28T14:45:24;8.50;;;6.00;;
15022;SDS011;19850;49.576;10.880;2023-02-28T14:49:27;8.13;;;6.60;;
15022;SDS011;19850;49.576;10.880;2023-02-28T14:53:35;8.53;;;5.90;;
15022;SDS011;19850;49.576;10.880;2023-02-28T14:57:40;8.83;;;6.70;;
15022;SDS011;19850;49.576;10.880;2023-02-28T15:01:46;7.43;;;6.63;;
15022;SDS011;19850;49.576;10.880;2023-02-28T15:05:53;7.47;;;6.70;;
15022;SDS011;19850;49.576;10.880;2023-02-28T15:10:15;9.57;;;7.90;;
15022;SDS011;19850;49.576;10.880;2023-02-28T15:14:20;8.67;;;6.67;;
15022;SDS011;19850;49.576;10.880;2023-02-28T15:18:28;6.73;;;6.03;;
15022;SDS011;19850;49.576;10.880;2023-02-28T15:22:34;6.70;;;6.00;;
15022;SDS011;19850;49.576;10.880;2023-02-28T15:26:39;6.97;;;5.70;;
15022;SDS011;19850;49.576;10.880;2023-02-28T15:30:50;10.87;;;7.20;;
15022;SDS011;19850;49.576;10.880;2023-02-28T15:34:57;6.80;;;6.10;;
15022;SDS011;19850;49.576;10.880;2023-02-28T15:39:01;9.73;;;6.60;;
15022;SDS011;19850;49.576;10.880;2023-02-28T15:43:16;7.63;;;6.40;;
15022;SDS011;19850;49.576;10.880;2023-02-28T15:47:20;7.87;;;6.73;;
15022;SDS011;19850;49.576;10.880;2023-02-28T15:51:28;8.30;;;6.83;;
15022;SDS011;19850;49.576;10.880;2023-02-28T15:55:34;8.13;;;7.00;;
15022;SDS011;19850;49.576;10.880;2023-02-28T15:59:38;8.33;;;6.73;;
15022;SDS011;19850;49.576;10.880;2023-02-28T16:03:42;8.57;;;6.93;;
15022;SDS011;19850;49.576;10.880;2023-02-28T16:07:48;7.90;;;7.10;;
15022;SDS011;19850;49.576;10.880;2023-02-28T16:11:51;8.10;;;7.30;;
15022;SDS011;19850;49.576;10.880;2023-02-28T16:15:56;8.13;;;6.80;;
15022;SDS011;19850;49.576;10.880;2023-02-28T16:20:05;8.87;;;7.03;;
15022;SDS011;19850;49.576;10.880;2023-02-28T16:24:16;8.13;;;7.33;;
15022;SDS011;19850;49.576;10.880;2023-02-28T16:28:20;12.23;;;8.60;;
15022;SDS011;19850;49.576;10.880;2023-02-28T16:32:25;10.40;;;7.23;;
15022;SDS011;19850;49.576;10.880;2023-02-28T16:36:28;8.47;;;6.97;;
15022;SDS011;19850;49.576;10.880;2023-02-28T16:40:34;10.83;;;8.00;;
15022;SDS011;19850;49.576;10.880;2023-02-28T16:44:37;10.47;;;7.63;;
15022;SDS011;19850;49.576;10.880;2023-02-28T16:48:40;9.93;;;7.97;;
15022;SDS011;19850;49.576;10.880;2023-02-28T16:52:43;11.67;;;8.33;;
15022;SDS011;19850;49.576;10.880;2023-02-28T16:56:47;10.73;;;8.07;;
15022;SDS011;19850;49.576;10.880;2023-02-28T17:00:53;14.37;;;8.70;;
15022;SDS011;19850;49.576;10.880;2023-02-28T17:04:55;12.40;;;9.13;;
15022;SDS011;19850;49.576;10.880;2023-02-28T17:08:58;10.13;;;8.70;;
15022;SDS011;19850;49.576;10.880;2023-02-28T17:13:03;12.90;;;9.90;;
15022;SDS011;19850;49.576;10.880;2023-02-28T17:17:15;13.20;;;9.50;;
15022;SDS011;19850;49.576;10.880;2023-02-28T17:21:20;15.53;;;10.93;;
15022;SDS011;19850;49.576;10.880;2023-02-28T17:25:24;13.80;;;10.37;;
15022;SDS011;19850;49.576;10.880;2023-02-28T17:29:28;14.93;;;10.60;;
15022;SDS011;19850;49.576;10.880;2023-02-28T17:33:33;19.93;;;15.00;;
15022;SDS011;19850;49.576;10.880;2023-02-28T17:37:36;30.53;;;18.30;;
15022;SDS011;19850;49.576;10.880;2023-02-28T17:41:39;35.87;;;24.03;;
15022;SDS011;19850;49.576;10.880;2023-02-28T17:45:44;16.33;;;12.00;;
15022;SDS011;19850;49.576;10.880;2023-02-28T17:49:47;11.37;;;9.20;;
15022;SDS011;19850;49.576;10.880;2023-02-28T17:53:49;10.17;;;8.77;;
15022;SDS011;19850;49.576;10.880;2023-02-28T17:57:52;11.93;;;9.13;;
15022;SDS011;19850;49.576;10.880;2023-02-28T18:01:56;13.03;;;11.07;;
15022;SDS011;19850;49.576;10.880;2023-02-28T18:05:59;10.67;;;8.83;;
15022;SDS011;19850;49.576;10.880;2023-02-28T18:10:03;10.03;;;8.50;;
15022;SDS011;19850;49.576;10.880;2023-02-28T18:14:06;11.73;;;9.50;;
15022;SDS011;19850;49.576;10.880;2023-02-28T18:18:11;11.57;;;9.20;;
15022;SDS011;19850;49.576;10.880;2023-02-28T18:22:14;11.47;;;9.13;;
15022;SDS011;19850;49.576;10.880;2023-02-28T18:26:18;12.77;;;9.70;;
15022;SDS011;19850;49.576;10.880;2023-02-28T18:30:21;11.10;;;8.57;;
15022;SDS011;19850;49.576;10.880;2023-02-28T18:34:25;10.87;;;8.93;;
15022;SDS011;19850;49.576;10.880;2023-02-28T18:38:28;13.30;;;10.23;;
15022;SDS011;19850;49.576;10.880;2023-02-28T18:42:31;13.23;;;9.83;;
15022;SDS011;19850;49.576;10.880;2023-02-28T18:46:34;9.90;;;8.90;;
15022;SDS011;19850;49.576;10.880;2023-02-28T18:50:38;130.97;;;61.83;;
15022;SDS011;19850;49.576;10.880;2023-02-28T18:54:41;27.63;;;17.37;;
15022;SDS011;19850;49.576;10.880;2023-02-28T18:58:44;16.83;;;13.03;;
15022;SDS011;19850;49.576;10.880;2023-02-28T19:02:47;23.07;;;16.53;;
15022;SDS011;19850;49.576;10.880;2023-02-28T19:06:52;15.80;;;10.43;;
15022;SDS011;19850;49.576;10.880;2023-02-28T19:10:55;16.87;;;13.83;;
15022;SDS011;19850;49.576;10.880;2023-02-28T19:14:58;18.97;;;16.03;;
15022;SDS011;19850;49.576;10.880;2023-02-28T19:19:01;18.23;;;15.37;;
15022;SDS011;19850;49.576;10.880;2023-02-28T19:23:05;18.37;;;16.07;;
15022;SDS011;19850;49.576;10.880;2023-02-28T19:27:10;18.47;;;13.73;;
15022;SDS011;19850;49.576;10.880;2023-02-28T19:31:13;16.07;;;12.50;;
15022;SDS011;19850;49.576;10.880;2023-02-28T19:35:17;14.67;;;12.10;;
15022;SDS011;19850;49.576;10.880;2023-02-28T19:39:21;12.97;;;11.50;;
15022;SDS011;19850;49.576;10.880;2023-02-28T19:43:24;12.97;;;11.57;;
15022;SDS011;19850;49.576;10.880;2023-02-28T19:47:27;18.90;;;15.10;;
15022;SDS011;19850;49.576;10.880;2023-02-28T19:51:31;18.43;;;14.37;;
15022;SDS011;19850;49.576;10.880;2023-02-28T19:55:36;14.13;;;11.60;;
15022;SDS011;19850;49.576;10.880;2023-02-28T19:59:39;18.53;;;14.00;;
15022;SDS011;19850;49.576;10.880;2023-02-28T20:03:42;11.43;;;9.80;;
15022;SDS011;19850;49.576;10.880;2023-02-28T20:07:49;18.60;;;14.43;;
15022;SDS011;19850;49.576;10.880;2023-02-28T20:11:53;20.37;;;14.77;;
15022;SDS011;19850;49.576;10.880;2023-02-28T20:15:59;14.67;;;12.73;;
15022;SDS011;19850;49.576;10.880;2023-02-28T20:20:03;14.83;;;11.90;;
15022;SDS011;19850;49.576;10.880;2023-02-28T20:24:08;15.13;;;11.47;;
15022;SDS011;19850;49.576;10.880;2023-02-28T20:28:12;15.10;;;11.67;;
15022;SDS011;19850;49.576;10.880;2023-02-28T20:32:15;12.83;;;9.53;;
15022;SDS011;19850;49.576;10.880;2023-02-28T20:36:18;12.63;;;9.60;;
15022;SDS011;19850;49.576;10.880;2023-02-28T20:40:24;13.80;;;10.17;;
15022;SDS011;19850;49.576;10.880;2023-02-28T20:44:30;11.30;;;9.43;;
15022;SDS011;19850;49.576;10.880;2023-02-28T20:48:33;12.57;;;9.97;;
15022;SDS011;19850;49.576;10.880;2023-02-28T20:52:36;12.73;;;9.97;;
15022;SDS011;19850;49.576;10.880;2023-02-28T20:56:39;11.93;;;9.90;;
15022;SDS011;19850;49.576;10.880;2023-02-28T21:00:43;12.63;;;10.27;;
15022;SDS011;19850;49.576;10.880;2023-02-28T21:04:46;12.13;;;10.47;;
15022;SDS011;19850;49.576;10.880;2023-02-28T21:08:49;12.20;;;10.33;;
15022;SDS011;19850;49.576;10.880;2023-02-28T21:12:52;13.77;;;10.57;;
15022;SDS011;19850;49.576;10.880;2023-02-28T21:16:59;13.30;;;10.30;;
15022;SDS011;19850;49.576;10.880;2023-02-28T21:21:02;15.00;;;11.13;;
15022;SDS011;19850;49.576;10.880;2023-02-28T21:25:06;12.57;;;10.57;;
15022;SDS011;19850;49.576;10.880;2023-02-28T21:29:10;12.10;;;9.63;;
15022;SDS011;19850;49.576;10.880;2023-02-28T21:33:15;13.57;;;9.83;;
15022;SDS011;19850;49.576;10.880;2023-02-28T21:37:17;10.57;;;9.40;;
15022;SDS011;19850;49.576;10.880;2023-02-28T21:41:21;12.07;;;9.57;;
15022;SDS011;19850;49.576;10.880;2023-02-28T21:45:24;12.33;;;9.60;;
15022;SDS011;19850;49.576;10.880;2023-02-28T21:49:30;11.40;;;9.57;;
15022;SDS011;19850;49.576;10.880;2023-02-28T21:53:35;11.27;;;9.60;;
15022;SDS011;19850;49.576;10.880;2023-02-28T21:57:39;10.90;;;9.57;;
15022;SDS011;19850;49.576;10.880;2023-02-28T22:01:45;11.53;;;9.30;;
15022;SDS011;19850;49.576;10.880;2023-02-28T22:05:51;12.50;;;9.70;;
15022;SDS011;19850;49.576;10.880;2023-02-28T22:09:54;11.37;;;9.40;;
15022;SDS011;19850;49.576;10.880;2023-02-28T22:13:57;12.73;;;9.57;;
15022;SDS011;19850;49.576;10.880;2023-02-28T22:18:00;12.60;;;9.83;;
15022;SDS011;19850;49.576;10.880;2023-02-28T22:22:05;12.20;;;9.30;;
15022;SDS011;19850;49.576;10.880;2023-02-28T22:26:08;11.67;;;9.67;;
15022;SDS011;19850;49.576;10.880;2023-02-28T22:30:12;10.70;;;9.47;;
15022;SDS011;19850;49.576;10.880;2023-02-28T22:34:15;11.80;;;10.53;;
15022;SDS011;19850;49.576;10.880;2023-02-28T22:38:19;11.90;;;10.27;;
15022;SDS011;19850;49.576;10.880;2023-02-28T22:42:23;13.40;;;11.17;;
15022;SDS011;19850;49.576;10.880;2023-02-28T22:46:27;11.50;;;10.17;;
15022;SDS011;19850;49.576;10.880;2023-02-28T22:50:32;13.80;;;10.10;;
15022;SDS011;19850;49.576;10.880;2023-02-28T22:54:36;12.60;;;10.17;;
15022;SDS011;19850;49.576;10.880;2023-02-28T22:58:39;12.67;;;11.00;;
15022;SDS011;19850;49.576;10.880;2023-02-28T23:02:44;13.20;;;10.67;;
15022;SDS011;19850;49.576;10.880;2023-02-28T23:06:47;13.43;;;10.83;;
15022;SDS011;19850;49.576;10.880;2023-02-28T23:10:51;13.13;;;9.97;;
15022;SDS011;19850;49.576;10.880;2023-02-28T23:14:54;12.83;;;10.77;;
15022;SDS011;19850;49.576;10.880;2023-02-28T23:18:57;12.17;;;10.70;;
15022;SDS011;19850;49.576;10.880;2023-02-28T23:23:02;11.57;;;9.90;;
15022;SDS011;19850;49.576;10.880;2023-02-28T23:27:06;13.93;;;10.97;;
15022;SDS011;19850;49.576;10.880;2023-02-28T23:31:09;12.97;;;10.63;;
15022;SDS011;19850;49.576;10.880;2023-02-28T23:35:12;13.60;;;11.10;;
15022;SDS011;19850;49.576;10.880;2023-02-28T23:39:15;14.10;;;10.50;;
15022;SDS011;19850;49.576;10.880;2023-02-28T23:43:20;13.57;;;11.47;;
15022;SDS011;19850;49.576;10.880;2023-02-28T23:47:23;13.03;;;10.80;;
15022;SDS011;19850;49.576;10.880;2023-02-28T23:51:32;14.57;;;11.17;;
15022;SDS011;19850;49.576;10.880;2023-02-28T23:55:35;13.30;;;10.83;;
15022;SDS011;19850;49.576;10.880;2023-02-28T23:59:39;13.83;;;10.87;;
